Time;durP1;ratioP1;P1;durP2;ratioP2;P2;SDS_P1;SDS_P2;PMS_P1;PMS_P2;Temp;Humidity;BMP_temperature;BMP_pressure;BME280_temperature;BME280_humidity;BME280_pressure;Samples;Min_cycle;Max_cycle;Signal;HPM_P1;HPM_P2
2023/08/09 00:01:35;;;;;;;1.85;1.25;;;14.20;99.90;;;;;;5000680;28;20029;-73
2023/08/09 00:04:10;;;;;;;1.70;1.08;;;14.20;99.90;;;;;;5001190;28;20021;-73
2023/08/09 00:06:36;;;;;;;2.25;1.38;;;14.10;99.90;;;;;;5001369;28;20041;-74
2023/08/09 00:09:03;;;;;;;1.80;1.40;;;14.00;99.90;;;;;;5010386;28;20021;-73
2023/08/09 00:11:29;;;;;;;1.77;1.15;;;14.00;99.90;;;;;;5014224;28;20045;-74
2023/08/09 00:13:55;;;;;;;2.20;1.58;;;14.00;99.90;;;;;;4995966;28;20461;-73
2023/08/09 00:16:22;;;;;;;1.70;1.38;;;14.10;99.90;;;;;;4988673;28;20054;-74
2023/08/09 00:18:49;;;;;;;2.90;2.38;;;14.10;99.90;;;;;;4954936;28;20477;-72
2023/08/09 00:21:15;;;;;;;2.63;1.65;;;14.10;99.90;;;;;;4954704;28;20034;-73
2023/08/09 00:23:41;;;;;;;2.30;1.73;;;14.00;99.90;;;;;;4954263;28;20486;-74
2023/08/09 00:26:08;;;;;;;1.52;1.00;;;14.00;99.90;;;;;;4953905;28;20363;-73
2023/08/09 00:28:34;;;;;;;1.73;1.25;;;14.00;99.90;;;;;;4953813;28;20038;-74
2023/08/09 00:31:00;;;;;;;2.47;1.63;;;14.00;99.90;;;;;;4954604;28;20046;-73
2023/08/09 00:33:27;;;;;;;1.60;1.10;;;13.90;99.90;;;;;;4968481;28;20031;-73
2023/08/09 00:35:53;;;;;;;1.17;0.85;;;13.90;99.90;;;;;;4939673;28;20046;-74
2023/08/09 00:38:20;;;;;;;1.75;1.27;;;13.80;99.90;;;;;;4953636;28;20477;-74
2023/08/09 00:40:46;;;;;;;2.00;1.77;;;13.70;99.90;;;;;;4946609;28;20030;-74
2023/08/09 00:43:13;;;;;;;1.95;1.50;;;13.70;99.90;;;;;;4947978;28;20034;-73
2023/08/09 00:45:44;;;;;;;2.35;1.85;;;13.60;99.90;;;;;;4942145;28;20493;-74
2023/08/09 00:48:11;;;;;;;1.83;1.65;;;13.60;99.90;;;;;;4955600;28;20038;-73
2023/08/09 00:50:38;;;;;;;1.85;1.50;;;13.50;99.90;;;;;;4938450;28;20539;-73
2023/08/09 00:53:05;;;;;;;1.77;1.25;;;13.50;99.90;;;;;;4937709;28;20517;-73
2023/08/09 00:55:33;;;;;;;2.05;1.60;;;13.50;99.90;;;;;;4938391;28;21354;-73
2023/08/09 00:57:59;;;;;;;1.95;1.52;;;13.40;99.90;;;;;;4956369;28;20030;-73
2023/08/09 01:00:25;;;;;;;1.83;1.60;;;13.40;99.90;;;;;;4947911;28;20026;-73
2023/08/09 01:02:53;;;;;;;1.88;1.65;;;13.30;99.90;;;;;;4978025;28;20041;-73
2023/08/09 01:05:20;;;;;;;2.45;2.25;;;13.30;99.90;;;;;;4956992;28;20046;-74
2023/08/09 01:07:58;;;;;;;2.88;2.17;;;13.30;99.90;;;;;;4939370;28;20037;-74
2023/08/09 01:10:42;;;;;;;3.92;2.85;;;13.20;99.90;;;;;;4955385;28;20038;-73
2023/08/09 01:13:09;;;;;;;4.22;3.10;;;13.30;99.90;;;;;;4967194;28;20035;-73
2023/08/09 01:15:38;;;;;;;2.90;2.60;;;13.30;99.90;;;;;;4955125;28;20034;-73
2023/08/09 01:18:08;;;;;;;3.47;3.15;;;13.30;99.90;;;;;;4969827;28;20038;-73
2023/08/09 01:20:36;;;;;;;5.20;4.60;;;13.40;99.90;;;;;;4962185;28;20034;-74
2023/08/09 01:23:24;;;;;;;7.35;5.53;;;13.40;99.90;;;;;;4963668;28;20038;-74
2023/08/09 01:25:51;;;;;;;12.98;9.05;;;13.50;99.90;;;;;;4955217;28;20405;-73
2023/08/09 01:28:17;;;;;;;12.48;9.07;;;13.60;99.90;;;;;;4955312;28;20049;-73
2023/08/09 01:30:44;;;;;;;11.07;8.18;;;13.60;99.90;;;;;;4954855;28;20034;-73
2023/08/09 01:33:10;;;;;;;8.57;6.22;;;13.70;99.90;;;;;;4935686;28;20046;-74
2023/08/09 01:35:49;;;;;;;8.55;6.55;;;13.70;99.90;;;;;;4939012;28;20045;-73
2023/08/09 01:38:24;;;;;;;9.00;6.43;;;13.80;99.90;;;;;;4954182;28;20038;-74
2023/08/09 01:40:51;;;;;;;13.50;9.30;;;13.80;99.90;;;;;;4956441;28;20038;-73
2023/08/09 01:43:18;;;;;;;14.07;10.70;;;13.80;99.90;;;;;;4976998;28;23678;-74
2023/08/09 01:45:45;;;;;;;15.98;11.60;;;13.90;99.90;;;;;;4962121;28;20050;-74
2023/08/09 01:48:12;;;;;;;15.73;11.20;;;13.90;99.90;;;;;;4954196;28;20042;-73
2023/08/09 01:50:40;;;;;;;16.10;11.52;;;13.90;99.90;;;;;;4954400;28;22586;-73
2023/08/09 01:53:07;;;;;;;14.50;10.75;;;14.00;99.90;;;;;;4952757;28;20038;-74
2023/08/09 01:55:33;;;;;;;19.35;13.68;;;14.00;99.90;;;;;;4953651;28;20030;-74
2023/08/09 01:58:00;;;;;;;15.45;11.07;;;14.00;99.90;;;;;;4955555;28;20123;-73
2023/08/09 02:00:27;;;;;;;14.57;10.52;;;14.00;99.90;;;;;;4959665;28;20041;-74
2023/08/09 02:02:54;;;;;;;19.48;12.55;;;14.10;99.90;;;;;;4949099;28;20026;-75
2023/08/09 02:05:22;;;;;;;18.23;11.82;;;14.00;99.90;;;;;;4960000;28;20038;-74
2023/08/09 02:07:50;;;;;;;18.13;12.50;;;14.10;99.90;;;;;;4970240;28;20042;-73
2023/08/09 02:10:18;;;;;;;17.27;11.20;;;14.10;99.90;;;;;;4937821;28;20049;-73
2023/08/09 02:12:47;;;;;;;14.65;10.20;;;14.10;99.90;;;;;;4937797;28;20041;-74
2023/08/09 02:15:15;;;;;;;20.60;13.93;;;14.10;99.90;;;;;;4939724;28;20042;-73
2023/08/09 02:17:43;;;;;;;17.80;11.07;;;14.10;99.90;;;;;;4960117;28;20049;-73
2023/08/09 02:20:11;;;;;;;16.88;11.27;;;14.10;99.90;;;;;;4976895;28;20042;-73
2023/08/09 02:22:39;;;;;;;25.63;14.25;;;14.20;99.90;;;;;;4934626;28;20614;-73
2023/08/09 02:25:07;;;;;;;18.42;12.43;;;14.20;99.90;;;;;;4961745;28;20018;-74
2023/08/09 02:27:34;;;;;;;20.92;12.77;;;14.20;99.90;;;;;;4959064;28;20043;-73
2023/08/09 02:30:03;;;;;;;17.75;11.05;;;14.10;99.90;;;;;;4957210;28;20030;-73
2023/08/09 02:32:32;;;;;;;21.67;13.98;;;14.20;99.90;;;;;;4971630;28;20032;-73
2023/08/09 02:34:59;;;;;;;17.98;11.88;;;14.20;99.90;;;;;;4969925;28;20038;-74
2023/08/09 02:37:27;;;;;;;15.02;10.75;;;14.20;99.90;;;;;;4956623;28;20042;-74
2023/08/09 02:39:54;;;;;;;19.70;13.02;;;14.20;99.90;;;;;;4974859;28;20030;-74
2023/08/09 02:42:20;;;;;;;17.98;11.50;;;14.20;99.90;;;;;;4965788;28;20026;-73
2023/08/09 02:44:47;;;;;;;17.30;11.05;;;14.20;99.90;;;;;;4948444;28;20037;-74
2023/08/09 02:47:13;;;;;;;18.40;11.05;;;14.20;99.90;;;;;;4960154;28;20057;-74
2023/08/09 02:49:40;;;;;;;16.48;11.30;;;14.20;99.90;;;;;;4942088;28;20432;-74
2023/08/09 02:52:06;;;;;;;18.30;11.52;;;14.30;99.90;;;;;;4941259;28;20050;-73
2023/08/09 02:54:33;;;;;;;25.85;13.60;;;14.30;99.90;;;;;;4956686;28;20045;-73
2023/08/09 02:56:59;;;;;;;33.22;14.30;;;14.30;99.90;;;;;;4941859;28;20030;-74
2023/08/09 02:59:26;;;;;;;17.20;11.95;;;14.30;99.90;;;;;;4959130;28;20018;-74
2023/08/09 03:01:52;;;;;;;16.30;11.10;;;14.30;99.90;;;;;;4966914;28;20049;-74
2023/08/09 03:04:19;;;;;;;18.58;11.40;;;14.30;99.90;;;;;;4963894;28;20092;-73
2023/08/09 03:06:45;;;;;;;17.35;11.77;;;14.20;99.90;;;;;;4956370;28;22772;-73
2023/08/09 03:09:12;;;;;;;13.63;8.45;;;14.30;99.90;;;;;;4957972;28;20037;-74
2023/08/09 03:11:38;;;;;;;15.30;8.98;;;14.30;99.90;;;;;;4956666;28;22629;-74
2023/08/09 03:14:05;;;;;;;15.32;9.15;;;14.30;99.90;;;;;;4941817;28;20038;-74
2023/08/09 03:16:31;;;;;;;17.65;10.10;;;14.30;99.90;;;;;;4956718;28;20030;-74
2023/08/09 03:18:57;;;;;;;26.58;14.25;;;14.30;99.90;;;;;;4957562;28;20041;-74
2023/08/09 03:21:24;;;;;;;21.92;12.27;;;14.30;99.90;;;;;;4948356;28;20034;-74
2023/08/09 03:23:51;;;;;;;15.57;9.73;;;14.30;99.90;;;;;;4982829;28;20042;-74
2023/08/09 03:26:17;;;;;;;19.23;10.40;;;14.30;99.90;;;;;;4959707;28;20042;-74
2023/08/09 03:28:45;;;;;;;16.08;9.30;;;14.30;99.90;;;;;;4972819;28;20042;-74
2023/08/09 03:31:14;;;;;;;15.63;9.82;;;14.30;99.90;;;;;;4956133;28;20038;-74
2023/08/09 03:33:40;;;;;;;15.95;9.20;;;14.40;99.90;;;;;;4940550;28;20049;-73
2023/08/09 03:36:07;;;;;;;15.82;8.77;;;14.40;99.90;;;;;;4940111;28;20053;-75
2023/08/09 03:38:34;;;;;;;17.17;9.95;;;14.40;99.90;;;;;;4957550;28;20022;-74
2023/08/09 03:41:00;;;;;;;19.80;11.88;;;14.40;99.90;;;;;;4962633;28;20366;-73
2023/08/09 03:43:27;;;;;;;15.07;9.32;;;14.40;99.90;;;;;;4965581;28;20034;-74
2023/08/09 03:45:56;;;;;;;17.25;10.05;;;14.40;99.90;;;;;;4961469;28;20046;-75
2023/08/09 03:48:22;;;;;;;14.35;9.40;;;14.40;99.90;;;;;;4956543;28;20039;-74
2023/08/09 03:50:49;;;;;;;21.25;11.38;;;14.40;99.90;;;;;;4955382;28;20033;-74
2023/08/09 03:53:15;;;;;;;24.02;13.07;;;14.40;99.90;;;;;;4955874;28;20030;-74
2023/08/09 03:55:42;;;;;;;14.20;9.20;;;14.50;99.90;;;;;;4940735;28;20043;-73
2023/08/09 03:58:09;;;;;;;16.05;9.23;;;14.50;99.90;;;;;;4940942;28;20041;-74
2023/08/09 04:00:36;;;;;;;16.25;9.38;;;14.50;99.90;;;;;;4964692;28;20061;-74
2023/08/09 04:03:03;;;;;;;17.58;9.93;;;14.50;99.90;;;;;;4964891;28;20046;-74
2023/08/09 04:05:29;;;;;;;14.85;8.50;;;14.50;99.90;;;;;;4943085;28;20045;-73
2023/08/09 04:07:57;;;;;;;23.85;10.65;;;14.50;99.90;;;;;;4956562;28;20038;-75
2023/08/09 04:10:24;;;;;;;13.68;8.90;;;14.50;99.90;;;;;;4956798;28;20603;-74
2023/08/09 08:19:35;;;;;;;8.98;7.35;;;18.90;99.90;;;;;;5058451;22;20543;-73
2023/08/09 08:22:03;;;;;;;6.47;5.88;;;19.00;99.90;;;;;;5044060;28;20044;-73
2023/08/09 08:24:29;;;;;;;8.70;6.50;;;19.00;99.90;;;;;;5016874;28;20041;-73
2023/08/09 08:26:55;;;;;;;8.15;6.35;;;19.00;99.90;;;;;;5043029;28;20032;-73
2023/08/09 08:29:23;;;;;;;9.13;8.02;;;19.10;99.90;;;;;;5049557;28;20048;-74
2023/08/09 08:31:50;;;;;;;9.90;8.40;;;19.20;99.90;;;;;;5043678;28;20040;-72
2023/08/09 08:34:21;;;;;;;8.93;7.95;;;19.20;99.90;;;;;;5038774;28;20039;-72
2023/08/09 08:36:48;;;;;;;13.65;9.32;;;19.30;99.90;;;;;;5027596;28;20029;-72
2023/08/09 08:39:15;;;;;;;13.00;10.15;;;19.30;99.90;;;;;;5047930;28;20037;-73
2023/08/09 08:41:42;;;;;;;12.40;9.98;;;19.30;99.90;;;;;;5047676;28;20487;-73
2023/08/09 08:44:11;;;;;;;9.70;8.70;;;19.30;99.90;;;;;;5052619;28;20067;-73
2023/08/09 08:46:38;;;;;;;10.25;8.68;;;19.40;99.90;;;;;;5028503;28;20052;-73
2023/08/09 08:49:05;;;;;;;10.45;9.35;;;19.40;99.90;;;;;;5048847;28;20629;-73
2023/08/09 08:51:34;;;;;;;7.95;7.25;;;19.50;99.90;;;;;;5045747;28;20029;-72
2023/08/09 08:54:01;;;;;;;8.73;7.82;;;19.50;99.90;;;;;;5049810;28;20778;-73
2023/08/09 08:56:29;;;;;;;7.43;6.72;;;19.60;99.90;;;;;;5045290;28;20025;-74
2023/08/09 08:58:58;;;;;;;5.68;5.18;;;19.80;99.90;;;;;;5030789;28;20033;-74
2023/08/09 09:01:25;;;;;;;6.25;4.85;;;20.00;99.90;;;;;;5031339;28;20576;-73
2023/08/09 09:03:52;;;;;;;4.45;4.05;;;20.30;99.90;;;;;;5027368;28;20037;-74
2023/08/09 09:06:19;;;;;;;5.65;5.10;;;20.40;99.90;;;;;;5040368;28;20390;-73
2023/08/09 09:08:46;;;;;;;5.55;3.65;;;20.60;99.90;;;;;;5047804;28;20040;-73
2023/08/09 09:11:18;;;;;;;3.42;2.58;;;20.80;99.90;;;;;;5064091;28;20044;-73
2023/08/09 09:13:47;;;;;;;2.50;1.70;;;20.90;99.90;;;;;;5048124;28;20048;-74
2023/08/09 09:16:15;;;;;;;2.70;2.03;;;21.10;99.90;;;;;;5047797;28;20028;-73
2023/08/09 09:18:43;;;;;;;3.58;2.30;;;21.10;99.90;;;;;;5045234;28;20075;-74
2023/08/09 09:21:09;;;;;;;3.25;1.92;;;21.00;99.90;;;;;;5045925;28;20049;-74
2023/08/09 09:23:37;;;;;;;2.35;1.60;;;21.00;99.90;;;;;;5047084;28;20451;-73
2023/08/09 09:26:08;;;;;;;2.38;1.75;;;21.10;99.90;;;;;;5047211;28;20029;-73
2023/08/09 09:28:39;;;;;;;3.35;1.88;;;21.30;99.90;;;;;;5033300;28;20087;-73
2023/08/09 09:31:06;;;;;;;2.65;2.08;;;21.50;99.90;;;;;;4994034;28;20483;-73
2023/08/09 09:33:34;;;;;;;4.03;2.55;;;21.50;99.90;;;;;;5033979;28;20048;-73
2023/08/09 09:36:02;;;;;;;5.85;2.80;;;21.70;99.90;;;;;;5013419;28;20037;-74
2023/08/09 09:38:29;;;;;;;3.47;2.42;;;21.70;99.90;;;;;;5034194;28;20048;-73
2023/08/09 09:40:57;;;;;;;2.67;1.52;;;21.90;99.90;;;;;;5030175;28;20092;-74
2023/08/09 09:43:24;;;;;;;2.33;1.77;;;22.00;99.90;;;;;;5018757;28;20029;-73
2023/08/09 09:45:56;;;;;;;4.10;2.13;;;22.10;99.90;;;;;;5030743;28;20390;-73
2023/08/09 09:48:24;;;;;;;2.35;1.15;;;22.20;99.90;;;;;;5018001;28;20044;-73
2023/08/09 09:50:50;;;;;;;2.78;1.00;;;22.20;99.90;;;;;;5030560;28;20036;-73
2023/08/09 09:53:18;;;;;;;1.83;0.70;;;22.20;99.90;;;;;;5031356;28;20419;-73
2023/08/09 09:55:45;;;;;;;2.35;0.75;;;22.20;99.90;;;;;;5034705;28;20303;-73
2023/08/09 09:58:12;;;;;;;1.77;0.70;;;22.10;99.90;;;;;;5017126;28;20044;-74
2023/08/09 10:00:49;;;;;;;2.38;0.90;;;22.00;99.90;;;;;;5000960;28;20053;-72
2023/08/09 10:03:22;;;;;;;1.75;1.05;;;21.90;99.90;;;;;;5014437;28;20024;-72
2023/08/09 10:05:51;;;;;;;2.92;1.00;;;21.90;99.90;;;;;;5010745;28;20048;-73
2023/08/09 10:08:20;;;;;;;2.38;1.15;;;22.10;99.90;;;;;;5031438;28;20567;-72
2023/08/09 10:10:50;;;;;;;22.33;2.00;;;22.20;99.90;;;;;;5031976;28;20042;-73
2023/08/09 10:13:26;;;;;;;4.25;2.08;;;22.50;99.90;;;;;;5031732;28;20036;-72
2023/08/09 10:15:57;;;;;;;3.47;1.80;;;22.60;99.90;;;;;;5027545;28;20044;-72
2023/08/09 10:18:33;;;;;;;4.30;1.88;;;22.70;99.90;;;;;;5028553;28;20049;-73
2023/08/09 10:21:01;;;;;;;2.17;1.08;;;22.70;99.90;;;;;;5035806;28;20670;-73
2023/08/09 10:23:29;;;;;;;1.85;1.10;;;22.80;99.90;;;;;;5013580;28;20048;-73
2023/08/09 10:25:56;;;;;;;3.15;0.90;;;22.70;99.90;;;;;;5034708;28;20033;-74
2023/08/09 10:28:47;;;;;;;3.78;1.40;;;22.70;99.90;;;;;;5012101;28;20395;-74
2023/08/09 10:31:35;;;;;;;1.98;1.02;;;22.50;99.90;;;;;;5020251;28;20623;-73
2023/08/09 10:34:09;;;;;;;2.78;0.90;;;22.20;99.90;;;;;;5030359;28;20033;-74
2023/08/09 10:36:36;;;;;;;2.65;0.75;;;21.90;99.90;;;;;;5015963;28;20247;-73
2023/08/09 10:39:23;;;;;;;1.63;0.70;;;21.60;99.90;;;;;;5030527;28;20047;-74
2023/08/09 10:41:54;;;;;;;0.80;0.40;;;21.30;99.90;;;;;;5031984;28;20059;-74
2023/08/09 10:44:42;;;;;;;1.20;0.50;;;21.10;99.90;;;;;;5032173;28;20029;-74
2023/08/09 10:47:29;;;;;;;3.35;0.70;;;21.10;99.90;;;;;;5014926;28;20029;-74
2023/08/09 10:49:55;;;;;;;1.70;0.60;;;21.10;99.90;;;;;;4999583;28;20033;-74
2023/08/09 10:52:49;;;;;;;2.55;0.75;;;21.20;99.90;;;;;;5030839;28;20044;-75
2023/08/09 10:55:18;;;;;;;1.52;0.70;;;21.50;99.90;;;;;;5022436;28;20044;-75
2023/08/09 10:57:48;;;;;;;1.42;0.60;;;21.60;99.90;;;;;;5033923;28;20028;-75
2023/08/09 11:00:15;;;;;;;1.73;0.75;;;21.90;99.90;;;;;;5026673;28;20037;-75
2023/08/09 11:02:46;;;;;;;4.30;1.95;;;22.10;99.90;;;;;;5031396;28;20475;-75
2023/08/09 11:05:12;;;;;;;2.70;1.70;;;22.30;99.90;;;;;;5029322;28;20041;-75
2023/08/09 11:07:43;;;;;;;2.20;0.80;;;22.50;99.90;;;;;;5002942;28;20029;-74
2023/08/09 11:10:12;;;;;;;2.70;1.10;;;22.70;99.90;;;;;;5008689;28;20044;-76
2023/08/09 11:12:45;;;;;;;1.95;1.00;;;22.70;99.90;;;;;;5028130;28;20029;-74
2023/08/09 11:15:12;;;;;;;2.42;1.33;;;22.80;99.90;;;;;;5032783;28;20032;-74
2023/08/09 11:17:48;;;;;;;2.95;1.05;;;22.80;99.90;;;;;;5030432;28;20059;-75
2023/08/09 11:20:15;;;;;;;3.33;1.60;;;22.90;99.90;;;;;;5031040;28;20044;-75
2023/08/09 11:23:02;;;;;;;3.50;1.70;;;22.90;99.90;;;;;;5014398;28;20578;-75
2023/08/09 11:25:31;;;;;;;3.72;1.08;;;22.90;99.90;;;;;;5032595;28;20433;-76
2023/08/09 11:28:00;;;;;;;2.00;1.20;;;22.70;99.90;;;;;;4997089;28;20171;-76
2023/08/09 11:30:31;;;;;;;1.42;0.75;;;22.50;99.90;;;;;;5031647;28;20087;-76
2023/08/09 11:33:03;;;;;;;2.70;0.80;;;22.40;99.90;;;;;;5026076;28;20044;-75
2023/08/09 11:35:30;;;;;;;2.55;1.02;;;22.40;99.90;;;;;;5048446;28;20033;-75
2023/08/09 11:37:56;;;;;;;2.85;1.65;;;22.50;99.90;;;;;;5030700;28;20079;-76
2023/08/09 11:40:24;;;;;;;3.92;1.80;;;22.70;99.90;;;;;;5033609;28;20390;-76
2023/08/09 11:42:55;;;;;;;3.55;1.65;;;23.00;99.90;;;;;;5028613;28;20025;-75
2023/08/09 11:45:22;;;;;;;4.25;2.10;;;23.20;99.90;;;;;;5016331;28;20037;-75
2023/08/09 11:47:51;;;;;;;1.77;1.30;;;23.20;99.90;;;;;;5030753;28;20036;-75
2023/08/09 11:50:24;;;;;;;3.75;2.03;;;23.20;99.90;;;;;;5031847;28;20033;-75
2023/08/09 11:52:52;;;;;;;2.55;2.00;;;23.30;99.90;;;;;;5014741;28;20037;-76
2023/08/09 11:55:20;;;;;;;2.97;1.73;;;23.40;99.90;;;;;;5015374;28;20040;-76
2023/08/09 11:57:46;;;;;;;4.78;1.48;;;23.70;99.90;;;;;;5009943;28;20063;-75
2023/08/09 12:00:15;;;;;;;2.00;1.00;;;24.40;99.90;;;;;;5033627;28;20041;-75
2023/08/09 12:02:41;;;;;;;3.20;1.20;;;25.30;99.90;;;;;;5003761;28;20029;-75
2023/08/09 12:05:14;;;;;;;4.25;1.00;;;26.10;99.90;;;;;;5031323;28;20044;-75
2023/08/09 12:07:41;;;;;;;1.42;0.73;;;26.60;99.90;;;;;;5012714;28;20037;-74
2023/08/09 12:10:13;;;;;;;2.15;1.00;;;27.10;99.90;;;;;;5011095;28;20045;-75
2023/08/09 12:12:41;;;;;;;1.45;0.98;;;27.60;99.90;;;;;;5031981;28;20033;-74
2023/08/09 12:15:10;;;;;;;2.47;0.93;;;27.80;99.90;;;;;;5012891;28;20036;-74
2023/08/09 12:17:37;;;;;;;2.65;1.40;;;27.40;99.90;;;;;;5030435;28;20407;-75
2023/08/09 12:20:06;;;;;;;4.20;1.00;;;26.80;99.90;;;;;;5028047;28;20059;-75
2023/08/09 12:22:33;;;;;;;2.28;0.70;;;26.40;99.90;;;;;;5006096;28;20035;-74
2023/08/09 12:25:00;;;;;;;3.22;1.45;;;27.00;99.90;;;;;;5010804;28;20033;-76
2023/08/09 12:27:27;;;;;;;1.88;0.95;;;28.00;99.90;;;;;;5028166;28;20029;-76
2023/08/09 12:29:54;;;;;;;3.50;1.35;;;28.80;99.90;;;;;;5013513;28;20426;-75
2023/08/09 12:32:21;;;;;;;1.45;0.60;;;29.40;99.90;;;;;;5029683;28;20037;-74
2023/08/09 12:34:50;;;;;;;1.27;0.60;;;29.80;99.90;;;;;;4990883;28;20051;-76
2023/08/09 12:37:17;;;;;;;4.03;0.70;;;29.60;99.90;;;;;;5028705;28;20022;-75
2023/08/09 12:39:44;;;;;;;1.08;0.50;;;28.80;99.90;;;;;;5027326;28;20596;-76
2023/08/09 12:42:10;;;;;;;1.10;0.60;;;28.10;99.90;;;;;;5029608;28;20379;-73
2023/08/09 12:44:37;;;;;;;0.73;0.40;;;27.40;99.90;;;;;;5028210;28;20051;-75
2023/08/09 12:47:03;;;;;;;8.82;6.63;;;26.80;99.90;;;;;;5030369;28;20484;-74
2023/08/09 12:49:30;;;;;;;4.63;1.70;;;26.30;99.90;;;;;;5029228;28;20490;-77
2023/08/09 12:51:56;;;;;;;1.40;0.70;;;26.80;99.90;;;;;;5015056;28;20044;-75
2023/08/09 12:54:22;;;;;;;1.40;0.50;;;28.00;99.90;;;;;;5009096;28;20025;-74
2023/08/09 12:56:49;;;;;;;1.75;0.60;;;29.10;99.90;;;;;;5014981;28;20037;-75
2023/08/09 12:59:15;;;;;;;1.80;0.80;;;30.00;99.60;;;;;;5028522;28;20036;-75
2023/08/09 13:01:42;;;;;;;2.17;0.43;;;30.70;97.70;;;;;;5027415;28;20510;-75
2023/08/09 13:04:09;;;;;;;1.52;0.40;;;30.50;96.30;;;;;;5011694;28;20095;-74
2023/08/09 13:06:35;;;;;;;2.60;0.60;;;29.60;96.30;;;;;;5032995;28;21103;-75
2023/08/09 13:09:08;;;;;;;2.08;0.40;;;28.60;96.40;;;;;;5015617;28;20100;-74
2023/08/09 13:11:34;;;;;;;1.55;0.50;;;28.40;96.90;;;;;;5032977;28;20021;-76
2023/08/09 13:14:00;;;;;;;2.13;0.57;;;28.80;96.20;;;;;;5028484;28;20051;-74
2023/08/09 13:16:27;;;;;;;1.20;0.50;;;28.60;96.30;;;;;;5047654;28;20628;-74
2023/08/09 13:18:53;;;;;;;2.55;0.50;;;28.90;94.70;;;;;;5017029;28;20045;-74
2023/08/09 13:21:20;;;;;;;2.22;0.50;;;28.50;94.10;;;;;;5015065;28;20344;-76
2023/08/09 13:23:46;;;;;;;2.28;0.60;;;28.50;94.00;;;;;;5032057;28;20041;-75
2023/08/09 13:26:13;;;;;;;1.95;0.50;;;29.30;93.10;;;;;;5018443;28;20060;-74
2023/08/09 13:28:40;;;;;;;2.10;0.63;;;30.30;93.20;;;;;;4998633;28;20133;-75
2023/08/09 13:31:08;;;;;;;4.90;0.52;;;31.40;91.80;;;;;;5032731;28;20021;-74
2023/08/09 13:33:35;;;;;;;3.45;0.50;;;32.20;90.40;;;;;;5033941;28;20049;-74
2023/08/09 13:36:02;;;;;;;2.40;0.40;;;32.70;89.30;;;;;;5034063;28;20376;-76
2023/08/09 13:38:31;;;;;;;2.50;0.50;;;33.10;85.60;;;;;;5033437;28;20044;-75
2023/08/09 13:40:59;;;;;;;1.92;0.50;;;33.70;83.40;;;;;;5031736;28;20746;-74
2023/08/09 13:43:26;;;;;;;2.58;0.50;;;33.70;81.30;;;;;;5032828;28;20033;-74
2023/08/09 13:45:53;;;;;;;1.70;0.40;;;32.60;79.60;;;;;;5036178;28;20041;-74
2023/08/09 13:48:20;;;;;;;1.60;0.50;;;32.20;80.30;;;;;;5018703;28;20033;-74
2023/08/09 13:50:48;;;;;;;2.85;0.50;;;32.50;80.10;;;;;;5009231;28;20040;-74
2023/08/09 13:53:15;;;;;;;3.30;0.40;;;33.00;79.30;;;;;;5034046;28;20029;-73
2023/08/09 13:55:43;;;;;;;1.63;0.60;;;33.50;76.10;;;;;;5033766;28;20471;-74
2023/08/09 13:58:10;;;;;;;1.48;0.40;;;33.70;74.30;;;;;;5017683;28;20032;-74
2023/08/09 14:00:37;;;;;;;1.00;0.40;;;32.60;73.20;;;;;;5025979;28;20049;-74
2023/08/09 14:03:05;;;;;;;2.83;0.40;;;31.10;74.10;;;;;;5033806;28;20032;-75
2023/08/09 14:05:35;;;;;;;2.35;0.50;;;30.40;76.40;;;;;;5034680;28;20032;-73
2023/08/09 14:08:01;;;;;;;1.85;0.50;;;30.10;77.80;;;;;;5017673;28;20033;-74
2023/08/09 14:10:28;;;;;;;1.60;0.60;;;30.10;78.60;;;;;;5033763;28;20040;-73
2023/08/09 14:12:56;;;;;;;1.30;0.57;;;31.00;77.00;;;;;;5013903;28;20048;-74
2023/08/09 14:15:23;;;;;;;3.20;0.60;;;32.10;76.20;;;;;;5014438;28;20033;-75
2023/08/09 14:17:50;;;;;;;4.35;0.60;;;33.30;74.20;;;;;;5030699;28;20049;-73
2023/08/09 14:20:17;;;;;;;2.13;0.50;;;34.30;70.80;;;;;;5047129;28;20514;-73
2023/08/09 14:22:44;;;;;;;1.75;0.40;;;35.10;68.60;;;;;;5015974;28;20033;-75
2023/08/09 14:25:13;;;;;;;1.88;0.40;;;35.50;66.10;;;;;;5033633;28;20051;-74
2023/08/09 14:27:40;;;;;;;2.25;0.60;;;35.10;64.10;;;;;;5018008;28;20040;-74
2023/08/09 14:30:07;;;;;;;5.13;1.85;;;33.60;63.90;;;;;;5036143;28;20494;-74
2023/08/09 14:32:33;;;;;;;2.58;1.00;;;33.00;65.80;;;;;;5014122;28;20111;-74
2023/08/09 14:34:59;;;;;;;2.83;0.60;;;33.10;67.20;;;;;;5017459;28;20044;-74
2023/08/09 14:37:27;;;;;;;1.27;0.50;;;33.00;67.10;;;;;;5010410;28;20052;-75
2023/08/09 14:39:53;;;;;;;1.58;0.40;;;33.30;67.50;;;;;;5032034;28;20057;-72
2023/08/09 14:42:19;;;;;;;1.00;0.40;;;33.60;67.40;;;;;;5031985;28;20643;-73
2023/08/09 14:44:47;;;;;;;1.02;0.40;;;32.80;67.20;;;;;;5005487;28;20033;-75
2023/08/09 14:47:13;;;;;;;2.25;0.50;;;31.50;67.20;;;;;;5034900;28;20040;-74
2023/08/09 14:49:40;;;;;;;1.88;0.40;;;30.20;68.60;;;;;;5035362;28;20037;-73
2023/08/09 14:52:07;;;;;;;1.63;0.38;;;29.20;70.30;;;;;;5035095;28;20048;-73
2023/08/09 14:54:33;;;;;;;1.25;0.40;;;28.50;71.50;;;;;;5032925;28;20033;-73
2023/08/09 14:57:00;;;;;;;1.95;0.43;;;28.00;73.20;;;;;;5031570;28;20364;-75
2023/08/09 14:59:27;;;;;;;1.20;0.50;;;27.60;74.00;;;;;;5034469;28;20041;-73
2023/08/09 15:01:53;;;;;;;1.15;0.40;;;27.20;75.20;;;;;;5032973;28;20067;-74
2023/08/09 15:04:21;;;;;;;1.05;0.50;;;27.40;76.30;;;;;;5013328;28;20033;-74
2023/08/09 15:06:48;;;;;;;1.40;0.43;;;28.10;76.00;;;;;;5014535;28;20510;-73
2023/08/09 15:09:14;;;;;;;2.72;0.40;;;28.70;73.50;;;;;;5034934;28;20577;-74
2023/08/09 15:11:41;;;;;;;2.22;0.50;;;28.20;73.60;;;;;;5033613;28;20506;-75
2023/08/09 15:14:08;;;;;;;2.45;0.40;;;27.60;73.90;;;;;;5031207;28;20407;-74
2023/08/09 15:16:35;;;;;;;2.80;0.70;;;27.00;74.90;;;;;;4990209;28;20283;-74
2023/08/09 15:19:01;;;;;;;1.45;0.43;;;26.80;76.40;;;;;;5013243;28;20053;-75
2023/08/09 15:21:28;;;;;;;1.73;0.40;;;26.50;76.80;;;;;;5030800;28;20048;-74
2023/08/09 15:23:54;;;;;;;2.00;0.50;;;26.20;77.80;;;;;;5033576;28;20024;-74
2023/08/09 15:26:20;;;;;;;1.42;0.40;;;25.80;79.10;;;;;;5032700;28;20471;-74
2023/08/09 15:28:47;;;;;;;2.75;0.65;;;25.40;80.00;;;;;;4999551;28;20029;-80
2023/08/09 15:31:13;;;;;;;3.35;0.65;;;25.20;80.70;;;;;;5031391;28;20043;-75
2023/08/09 15:33:40;;;;;;;1.88;0.50;;;25.00;81.20;;;;;;5013698;28;20037;-74
2023/08/09 15:36:06;;;;;;;1.00;0.40;;;24.70;81.10;;;;;;5031304;28;20033;-74
2023/08/09 15:38:32;;;;;;;2.30;0.80;;;24.40;81.50;;;;;;5016612;28;20451;-72
2023/08/09 15:41:01;;;;;;;1.67;0.50;;;24.20;82.00;;;;;;5014712;28;20049;-75
2023/08/09 15:43:28;;;;;;;1.38;0.40;;;24.10;82.30;;;;;;5030920;28;20040;-75
2023/08/09 15:45:54;;;;;;;3.22;0.60;;;23.90;82.80;;;;;;5031022;28;20045;-73
2023/08/09 15:48:21;;;;;;;1.33;0.40;;;23.80;82.90;;;;;;5032722;28;20593;-74
2023/08/09 15:50:47;;;;;;;1.27;0.65;;;23.50;83.30;;;;;;5034836;28;20411;-75
2023/08/09 15:53:13;;;;;;;1.23;0.30;;;23.40;84.10;;;;;;5034280;28;20024;-74
2023/08/09 15:55:40;;;;;;;1.83;0.50;;;23.20;84.70;;;;;;5030207;28;20040;-75
2023/08/09 15:58:07;;;;;;;4.72;0.85;;;23.00;85.00;;;;;;5033410;28;20033;-75
2023/08/09 16:00:34;;;;;;;1.83;0.47;;;22.90;85.30;;;;;;5017840;28;20236;-75
2023/08/09 16:03:02;;;;;;;3.78;0.50;;;22.80;85.30;;;;;;5029708;28;20028;-74
2023/08/09 16:05:29;;;;;;;0.90;0.30;;;22.70;85.30;;;;;;5016651;28;20048;-75
2023/08/09 16:07:55;;;;;;;2.22;0.40;;;22.60;85.90;;;;;;5029938;28;20056;-75
2023/08/09 16:10:22;;;;;;;1.98;0.40;;;22.50;86.70;;;;;;5032742;28;20029;-75
2023/08/09 16:12:49;;;;;;;3.45;0.80;;;22.40;86.60;;;;;;5023790;28;20039;-73
2023/08/09 16:15:15;;;;;;;2.20;0.40;;;22.20;87.10;;;;;;5017405;28;20407;-75
2023/08/09 16:17:42;;;;;;;1.92;0.40;;;22.10;87.10;;;;;;5014933;28;20043;-74
2023/08/09 16:20:08;;;;;;;1.83;0.50;;;22.00;87.60;;;;;;5029983;28;20051;-74
2023/08/09 16:22:36;;;;;;;2.83;0.40;;;21.90;87.70;;;;;;5028215;28;20364;-72
2023/08/09 16:25:02;;;;;;;1.95;0.40;;;21.80;88.70;;;;;;5013260;28;20033;-73
2023/08/09 16:27:29;;;;;;;1.45;0.40;;;21.80;89.20;;;;;;5011295;28;20070;-74
2023/08/09 16:29:55;;;;;;;1.85;0.30;;;21.70;89.30;;;;;;5013736;28;20039;-75
2023/08/09 16:32:22;;;;;;;3.28;0.40;;;21.70;89.60;;;;;;5029195;28;20038;-73
2023/08/09 16:34:48;;;;;;;3.47;0.60;;;21.70;89.80;;;;;;5025517;28;20043;-74
2023/08/09 16:37:15;;;;;;;1.80;0.45;;;21.60;90.00;;;;;;5027586;28;20469;-74
2023/08/09 16:39:41;;;;;;;0.85;0.40;;;21.50;90.10;;;;;;5029743;28;20036;-73
2023/08/09 16:42:07;;;;;;;0.98;0.40;;;21.40;90.20;;;;;;5033914;28;20033;-74
2023/08/09 16:44:34;;;;;;;1.83;0.40;;;21.40;90.30;;;;;;5034610;28;20029;-74
2023/08/09 16:47:00;;;;;;;1.45;0.40;;;21.30;90.40;;;;;;5034593;28;20573;-74
2023/08/09 16:49:27;;;;;;;3.10;0.40;;;21.20;90.50;;;;;;5015922;28;20602;-74
2023/08/09 16:51:54;;;;;;;2.42;0.50;;;21.20;90.30;;;;;;5017156;28;20439;-76
2023/08/09 16:54:21;;;;;;;2.95;0.50;;;21.10;90.30;;;;;;5033089;28;20040;-73